CheckWX is a tool to help pilots better visualize weather data.  It is not intended as a substitute for an official pre-flight weather briefing.

16:56:03 UTC

UTAK TAF
Turkmenbashi
Krasnovodsk
TAF UTAK 181030Z 1812/1912 36018KT 9999 SCT040 SCT100 530009 TEMPO 1812/1818 29018KT TEMPO 1822/1903 07016KT 5000 SCT010 TEMPO 1903/1912 16016KT

Jun-18@
12:00 UTC

Jun-18 @ 12:00 UTC

Jun-19@
12:00 UTC

Jun-19 @ 12:00 UTC

TAF UTAK 181030Z 1812/1912 36018KT 9999 SCT040 SCT100 530009
Wind
  • 360° at 18 KTS
Cloud Levels
  • Scattered at 4,000' AGL
  • Scattered at 10,000' AGL
Turbulence
< Frequent moderate clear air turbulence expected at the surface extending to 9,000' AGL

Jun-18@
12:00 UTC

Jun-18 @ 12:00 UTC

Jun-18@
18:00 UTC

Jun-18 @ 18:00 UTC

TEMPO 1812/1818 29018KT

Temporary

Temporary Changes expected for less than half the time period

Wind
  • 290° at 18 KTS

Jun-18@
22:00 UTC

Jun-18 @ 22:00 UTC

Jun-19@
03:00 UTC

Jun-19 @ 03:00 UTC

TEMPO 1822/1903 07016KT 5000 SCT010

Temporary

Temporary Changes expected for less than half the time period

Wind
  • 070° at 16 KTS
Cloud Levels
  • Scattered at 1,000' AGL

Jun-19@
03:00 UTC

Jun-19 @ 03:00 UTC

Jun-19@
12:00 UTC

Jun-19 @ 12:00 UTC

TEMPO 1903/1912 16016KT

Temporary

Temporary Changes expected for less than half the time period

Wind
  • 160° at 16 KTS